Time;durP1;ratioP1;P1;durP2;ratioP2;P2;SDS_P1;SDS_P2;PMS_P1;PMS_P2;Temp;Humidity;BMP_temperature;BMP_pressure;BME280_temperature;BME280_humidity;BME280_pressure;Samples;Min_cycle;Max_cycle;Signal;HPM_P1;HPM_P2
2022/11/07 00:01:22;;;;;;;17.62;12.18;;;;;;;5.15;79.16;97262.20;1784415;80;25199;-76
2022/11/07 00:03:53;;;;;;;20.27;13.40;;;;;;;5.14;79.12;97263.21;1784271;80;25678;-77
2022/11/07 00:06:20;;;;;;;19.60;12.40;;;;;;;5.11;79.18;97260.89;1784580;80;25717;-74
2022/11/07 00:08:46;;;;;;;20.35;12.00;;;;;;;5.11;79.22;97260.89;1784413;80;25724;-74
2022/11/07 00:11:13;;;;;;;19.55;11.95;;;;;;;5.08;79.18;97262.08;1784616;80;27329;-73
2022/11/07 00:13:40;;;;;;;22.10;12.20;;;;;;;5.07;79.23;97263.08;1784521;80;25578;-77
2022/11/07 00:16:09;;;;;;;16.62;11.08;;;;;;;5.07;79.25;97256.94;1784583;80;25682;-77
2022/11/07 00:18:36;;;;;;;22.85;13.72;;;;;;;5.05;79.17;97258.95;1784533;80;25637;-73
2022/11/07 00:21:08;;;;;;;27.10;15.43;;;;;;;5.03;79.27;97259.63;1784544;80;25740;-75
2022/11/07 00:23:35;;;;;;;;;;;;;;;5.02;79.26;97259.30;1787182;80;26787;-73
2022/11/07 00:26:09;;;;;;;23.15;13.68;;;;;;;4.98;79.33;97263.34;1784470;80;25610;-74
2022/11/07 00:28:38;;;;;;;36.25;21.00;;;;;;;4.93;79.38;97257.72;1720082;82;25292;-73
2022/11/07 00:31:07;;;;;;;42.00;25.32;;;;;;;4.92;79.39;97258.72;1720142;83;25848;-74
2022/11/07 00:33:33;;;;;;;39.03;21.37;;;;;;;4.92;79.41;97264.07;1720135;83;25877;-74
2022/11/07 00:35:59;;;;;;;27.42;16.20;;;;;;;4.91;79.47;97261.06;1720088;83;28117;-74
2022/11/07 00:38:27;;;;;;;26.73;15.98;;;;;;;4.89;79.53;97257.73;1727561;83;25946;-75
2022/11/07 00:40:59;;;;;;;26.85;15.60;;;;;;;4.90;79.67;97255.39;1727892;83;25902;-73
2022/11/07 00:43:26;;;;;;;23.55;14.38;;;;;;;4.92;79.74;97245.34;1728113;83;25811;-78
2022/11/07 00:45:52;;;;;;;23.92;14.75;;;;;;;4.94;79.78;97252.69;1727881;83;25893;-78
2022/11/07 00:48:19;;;;;;;20.90;12.93;;;;;;;4.91;79.78;97247.19;1727878;83;27369;-74
2022/11/07 00:50:46;;;;;;;27.25;14.43;;;;;;;4.94;79.86;97254.86;1727724;81;25914;-74
2022/11/07 00:53:13;;;;;;;20.05;13.68;;;;;;;4.95;79.89;97247.67;1727858;83;25753;-75
2022/11/07 00:55:39;;;;;;;24.00;13.55;;;;;;;4.97;79.87;97245.62;1727805;83;26320;-74
2022/11/07 00:58:06;;;;;;;19.48;13.22;;;;;;;4.97;79.84;97237.09;1727881;83;26821;-74
2022/11/07 01:00:33;;;;;;;21.50;12.58;;;;;;;4.98;79.85;97238.76;1727798;83;28254;-75
2022/11/07 01:06:01;;;;;;;23.47;14.25;;;;;;;4.97;79.87;97237.59;1727634;83;25871;-74
2022/11/07 01:08:29;;;;;;;23.65;14.90;;;;;;;4.97;79.89;97240.27;1639121;87;25741;-73
2022/11/07 01:10:57;;;;;;;28.60;14.05;;;;;;;4.98;79.95;97233.91;1638930;87;25828;-74
2022/11/07 01:13:24;;;;;;;26.97;15.88;;;;;;;5.00;79.98;97229.22;1639290;86;27470;-74
2022/11/07 01:15:51;;;;;;;23.60;14.10;;;;;;;5.00;79.92;97226.55;1639313;87;25679;-77
2022/11/07 01:18:18;;;;;;;23.65;14.60;;;;;;;4.99;79.92;97231.06;1639266;87;26464;-76
2022/11/07 01:20:44;;;;;;;32.78;19.77;;;;;;;5.00;79.92;97223.88;1639359;87;25875;-74
2022/11/07 01:23:11;;;;;;;28.17;18.85;;;;;;;4.99;79.92;97227.55;1639066;87;25856;-78
2022/11/07 01:25:38;;;;;;;40.38;20.25;;;;;;;4.98;79.96;97225.38;1674120;84;27332;-76
2022/11/07 01:28:06;;;;;;;34.50;18.48;;;;;;;4.97;80.03;97225.05;1695847;84;25788;-74
2022/11/07 01:30:38;;;;;;;36.42;17.73;;;;;;;4.99;80.08;97225.71;1695936;84;25878;-74
2022/11/07 01:33:05;;;;;;;32.73;17.48;;;;;;;4.97;80.09;97218.37;1696208;84;25782;-75
2022/11/07 01:35:33;;;;;;;28.65;16.23;;;;;;;4.97;80.12;97215.69;1696026;84;25836;-75
2022/11/07 01:38:00;;;;;;;27.10;14.35;;;;;;;4.98;80.17;97217.86;1695615;83;27562;-74
2022/11/07 01:40:27;;;;;;;25.90;15.72;;;;;;;5.00;80.16;97213.17;1695920;84;25285;-74
2022/11/07 01:42:53;;;;;;;23.50;14.05;;;;;;;5.00;80.16;97215.34;1695940;84;25797;-76
2022/11/07 01:45:25;;;;;;;21.75;12.78;;;;;;;4.99;80.18;97211.00;1695908;84;26329;-74
2022/11/07 01:47:54;;;;;;;18.70;11.73;;;;;;;4.99;80.19;97210.16;1693008;83;25721;-74
2022/11/07 01:50:21;;;;;;;17.27;11.78;;;;;;;4.99;80.27;97202.14;1695871;84;27438;-73
2022/11/07 01:52:50;;;;;;;19.70;12.10;;;;;;;5.00;80.28;97201.13;1695802;84;25788;-75
2022/11/07 01:55:24;;;;;;;21.77;11.60;;;;;;;5.02;80.34;97203.13;1695867;84;25775;-73
2022/11/07 01:57:55;;;;;;;20.00;11.85;;;;;;;5.04;80.34;97191.74;1695977;83;25857;-74
2022/11/07 02:00:24;;;;;;;17.50;11.38;;;;;;;5.05;80.34;97194.74;1646542;87;25870;-76
2022/11/07 02:02:58;;;;;;;17.55;10.38;;;;;;;5.05;80.34;97197.42;1646425;87;27407;-74
2022/11/07 02:05:36;;;;;;;17.40;11.63;;;;;;;5.05;80.38;97196.08;1678105;85;25808;-75
2022/11/07 02:08:06;;;;;;;15.68;11.03;;;;;;;5.04;80.43;97191.74;1678065;85;25806;-74
2022/11/07 02:10:34;;;;;;;16.95;11.35;;;;;;;5.02;80.49;97179.05;1678005;85;25690;-75
2022/11/07 02:13:02;;;;;;;17.60;11.35;;;;;;;5.05;80.53;97177.35;1677919;85;25480;-74
2022/11/07 02:15:30;;;;;;;18.27;10.53;;;;;;;5.04;80.55;97177.86;1678175;85;27586;-73
2022/11/07 02:17:57;;;;;;;17.50;11.57;;;;;;;5.06;80.58;97179.85;1678169;85;25859;-74
2022/11/07 02:20:24;;;;;;;15.60;10.60;;;;;;;5.07;80.65;97182.82;1678081;85;25735;-74
2022/11/07 02:23:06;;;;;;;17.07;10.32;;;;;;;5.10;80.73;97179.46;1677782;85;25786;-74
2022/11/07 02:25:33;;;;;;;16.20;10.90;;;;;;;5.10;80.79;97177.62;1675477;85;25774;-74
2022/11/07 02:28:04;;;;;;;16.52;10.60;;;;;;;5.10;80.78;97176.79;1678325;85;28049;-73
2022/11/07 02:30:33;;;;;;;14.55;9.93;;;;;;;5.09;80.86;97173.28;1678058;85;25554;-74
2022/11/07 02:33:01;;;;;;;13.85;9.80;;;;;;;5.08;80.98;97165.76;1678018;85;25672;-77
2022/11/07 02:35:39;;;;;;;19.00;10.98;;;;;;;5.12;81.05;97172.92;1678171;85;25765;-74
2022/11/07 02:38:29;;;;;;;16.45;10.23;;;;;;;5.14;81.04;97168.23;1702468;82;25785;-75
2022/11/07 02:41:01;;;;;;;15.18;10.13;;;;;;;5.17;81.01;97165.70;1738059;82;28364;-74
2022/11/07 02:43:29;;;;;;;14.75;9.13;;;;;;;5.19;81.03;97173.04;1738115;82;25760;-75
2022/11/07 02:45:59;;;;;;;14.00;9.50;;;;;;;5.19;81.04;97165.84;1671809;85;25818;-74
2022/11/07 02:48:29;;;;;;;13.15;9.40;;;;;;;5.20;81.04;97174.16;1682583;85;25682;-74
2022/11/07 02:50:56;;;;;;;12.58;9.70;;;;;;;5.22;81.04;97169.47;1632901;87;25721;-74
2022/11/07 02:53:23;;;;;;;15.18;10.08;;;;;;;5.23;80.97;97179.16;1633085;87;27577;-74
2022/11/07 02:55:49;;;;;;;13.90;9.40;;;;;;;5.23;80.93;97176.48;1633148;87;25562;-76
2022/11/07 02:58:16;;;;;;;12.40;9.13;;;;;;;5.21;80.90;97173.16;1632854;87;25770;-76
2022/11/07 03:00:43;;;;;;;12.45;9.80;;;;;;;5.21;80.90;97170.98;1633118;87;26260;-75
2022/11/07 03:03:09;;;;;;;14.75;9.68;;;;;;;5.20;80.89;97178.18;1650345;84;25942;-73
2022/11/07 03:05:36;;;;;;;13.93;9.80;;;;;;;5.19;80.84;97171.70;1691267;84;28340;-75
2022/11/07 03:08:02;;;;;;;13.20;9.68;;;;;;;5.18;80.85;97171.38;1691097;84;25728;-74
2022/11/07 03:10:29;;;;;;;12.78;8.95;;;;;;;5.18;80.85;97164.69;1691308;84;25840;-74
2022/11/07 03:12:55;;;;;;;14.38;9.55;;;;;;;5.14;80.83;97169.56;1691304;84;25790;-77
2022/11/07 03:15:22;;;;;;;15.28;10.45;;;;;;;5.13;80.87;97163.05;1691236;84;25824;-76
2022/11/07 03:17:48;;;;;;;21.93;10.85;;;;;;;5.13;80.89;97162.55;1691476;84;28006;-76
2022/11/07 03:20:15;;;;;;;15.58;10.78;;;;;;;5.12;80.88;97161.39;1691164;84;25741;-74
2022/11/07 03:22:41;;;;;;;17.77;11.45;;;;;;;5.09;80.84;97163.91;1691281;84;26704;-74
2022/11/07 03:25:08;;;;;;;17.23;11.55;;;;;;;5.06;80.85;97158.95;1691351;84;25734;-74
2022/11/07 03:27:34;;;;;;;17.60;10.72;;;;;;;5.01;80.87;97163.50;1691228;84;25333;-74
2022/11/07 03:30:01;;;;;;;14.60;10.35;;;;;;;4.95;80.87;97162.88;1691349;84;27560;-75
2022/11/07 03:32:27;;;;;;;19.57;11.28;;;;;;;4.92;80.98;97165.11;1691222;84;25724;-77
2022/11/07 03:34:54;;;;;;;15.43;10.48;;;;;;;4.92;81.03;97165.94;1691213;84;25756;-74
2022/11/07 03:37:20;;;;;;;16.73;11.50;;;;;;;4.93;81.09;97173.45;1693205;84;26569;-76
2022/11/07 03:39:47;;;;;;;18.87;12.50;;;;;;;4.92;81.12;97167.78;1699312;84;25842;-74
2022/11/07 03:42:14;;;;;;;19.90;13.13;;;;;;;4.92;81.04;97170.45;1699471;84;27538;-75
2022/11/07 03:44:40;;;;;;;18.98;11.68;;;;;;;4.90;80.97;97169.30;1699495;84;25497;-75
2022/11/07 03:47:07;;;;;;;16.32;10.82;;;;;;;4.90;80.92;97168.46;1710817;82;25862;-75
2022/11/07 03:49:33;;;;;;;15.90;10.48;;;;;;;4.88;80.86;97166.47;1748431;82;26070;-74
2022/11/07 03:52:03;;;;;;;17.42;12.00;;;;;;;4.85;80.78;97170.84;1748540;82;25741;-76
2022/11/07 03:54:30;;;;;;;17.65;11.45;;;;;;;4.84;80.84;97175.86;1748453;82;27472;-76
2022/11/07 03:56:56;;;;;;;14.75;10.35;;;;;;;4.81;80.78;97169.05;1748389;82;25221;-74
2022/11/07 03:59:23;;;;;;;14.83;10.10;;;;;;;4.79;80.78;97167.56;1748254;82;25759;-74
2022/11/07 04:01:49;;;;;;;16.67;10.20;;;;;;;4.78;80.74;97173.92;1748501;82;26364;-74
2022/11/07 04:04:16;;;;;;;12.93;9.65;;;;;;;4.75;80.76;97179.63;1748528;82;25761;-73
2022/11/07 04:06:42;;;;;;;14.98;9.45;;;;;;;4.73;80.72;97175.79;1748602;82;27365;-73
2022/11/07 04:09:09;;;;;;;12.88;9.83;;;;;;;4.72;80.71;97167.44;1748252;82;25478;-77
2022/11/07 04:17:19;;;;;;;14.70;10.00;;;;;;;4.68;80.71;97175.02;1748521;82;25225;-74
2022/11/07 04:19:54;;;;;;;13.95;9.68;;;;;;;4.66;80.67;97170.34;1748485;82;27494;-74
2022/11/07 04:22:25;;;;;;;14.95;10.72;;;;;;;4.65;80.67;97171.86;1690833;84;25511;-73
2022/11/07 04:24:51;;;;;;;16.10;10.18;;;;;;;4.65;80.67;97173.20;1691318;84;26740;-76
2022/11/07 04:30:18;;;;;;;14.15;10.28;;;;;;;4.55;80.48;97169.44;1691047;84;25341;-76
2022/11/07 04:32:48;;;;;;;18.48;10.25;;;;;;;4.51;80.62;97177.48;1691261;84;27399;-76
2022/11/07 04:35:15;;;;;;;13.65;9.70;;;;;;;4.48;80.56;97181.84;1691184;84;25578;-77
2022/11/07 04:37:42;;;;;;;15.63;10.30;;;;;;;4.40;80.49;97171.22;1684677;84;25815;-74
2022/11/07 04:40:10;;;;;;;13.78;9.58;;;;;;;4.40;80.64;97171.72;1668255;86;25755;-73
2022/11/07 04:42:37;;;;;;;16.75;10.45;;;;;;;4.40;80.75;97161.03;1668550;85;25707;-77
2022/11/07 04:45:06;;;;;;;20.97;11.22;;;;;;;4.41;80.74;97164.86;1668563;85;28119;-74
2022/11/07 04:47:32;;;;;;;16.73;11.05;;;;;;;4.37;80.71;97154.20;1668618;85;25793;-74
2022/11/07 04:49:59;;;;;;;18.15;10.93;;;;;;;4.37;80.70;97160.88;1668571;85;25831;-74
2022/11/07 04:52:25;;;;;;;16.52;11.60;;;;;;;4.34;80.64;97162.09;1668656;85;25658;-74
2022/11/07 04:54:53;;;;;;;16.97;12.37;;;;;;;4.30;80.60;97160.77;1668203;84;43165;-74
2022/11/07 04:57:19;;;;;;;16.50;11.88;;;;;;;4.29;80.58;97159.61;1668385;86;27500;-75
2022/11/07 04:59:46;;;;;;;20.08;11.18;;;;;;;4.24;80.49;97163.30;1668304;85;25777;-74
2022/11/07 05:02:13;;;;;;;21.82;12.55;;;;;;;4.19;80.54;97156.34;1668684;85;25787;-74
2022/11/07 05:04:39;;;;;;;22.10;13.75;;;;;;;4.10;80.55;97159.59;1668524;85;25760;-77
2022/11/07 05:07:08;;;;;;;23.87;15.70;;;;;;;4.04;80.69;97157.60;1668763;85;25504;-74
2022/11/07 05:09:35;;;;;;;30.15;19.80;;;;;;;4.03;80.79;97151.93;1668490;85;28319;-76
2022/11/07 05:12:01;;;;;;;32.75;21.95;;;;;;;4.05;80.87;97153.92;1668464;85;25791;-76
2022/11/07 05:14:30;;;;;;;33.38;22.40;;;;;;;4.05;80.80;97155.77;1668461;85;25347;-75
2022/11/07 05:16:57;;;;;;;31.52;19.48;;;;;;;4.01;80.75;97151.77;1668762;85;25861;-77
2022/11/07 05:19:24;;;;;;;37.85;20.25;;;;;;;3.99;80.85;97148.77;1715546;82;25630;-75
2022/11/07 05:23:10;;;;;;;35.13;19.82;;;;;;;4.01;80.90;97150.44;1744930;82;27352;-76
2022/11/07 05:24:18;;;;;;;35.92;19.98;;;;;;;4.03;80.96;97155.11;1740710;82;25892;-73
2022/11/07 05:26:45;;;;;;;29.52;17.67;;;;;;;4.06;80.95;97152.09;1744949;82;25704;-73
2022/11/07 05:29:12;;;;;;;27.20;16.62;;;;;;;4.02;80.88;97154.77;1745060;82;25669;-73
2022/11/07 05:31:38;;;;;;;30.95;17.92;;;;;;;3.99;80.91;97151.44;1744943;82;25657;-73
2022/11/07 05:34:05;;;;;;;33.53;20.70;;;;;;;3.96;80.98;97153.16;1745067;82;27991;-76
2022/11/07 05:36:31;;;;;;;41.45;25.80;;;;;;;3.94;81.22;97163.67;1744601;82;25716;-74
2022/11/07 05:38:58;;;;;;;40.00;24.55;;;;;;;3.96;81.43;97161.67;1746913;82;25684;-75
2022/11/07 05:41:25;;;;;;;43.30;27.58;;;;;;;4.01;81.55;97174.47;1748051;82;25810;-76
2022/11/07 05:43:51;;;;;;;49.13;29.80;;;;;;;4.02;81.62;97173.47;1747956;82;25454;-73
2022/11/07 05:46:18;;;;;;;44.23;27.90;;;;;;;4.02;81.53;97178.81;1748122;82;27922;-74
2022/11/07 05:48:44;;;;;;;57.03;32.15;;;;;;;4.04;81.51;97172.80;1747832;82;25640;-74
2022/11/07 05:51:11;;;;;;;52.62;29.52;;;;;;;4.03;81.46;97173.80;1740891;81;25751;-76
2022/11/07 05:53:37;;;;;;;46.15;27.30;;;;;;;4.04;81.41;97173.63;1737954;82;25719;-77
2022/11/07 05:56:04;;;;;;;52.08;30.08;;;;;;;4.08;81.46;97183.47;1740634;82;25283;-73
2022/11/07 05:58:31;;;;;;;49.08;29.27;;;;;;;4.11;81.50;97187.09;1741603;82;27553;-74
2022/11/07 06:01:03;;;;;;;59.48;33.20;;;;;;;4.11;81.45;97182.59;1740314;82;25775;-75
2022/11/07 06:03:30;;;;;;;;;;;;;;;4.11;81.38;97184.42;1698955;84;25830;-74
2022/11/07 06:05:57;;;;;;;54.42;32.03;;;;;;;4.09;81.46;97183.80;1696481;84;25795;-72
2022/11/07 06:08:23;;;;;;;54.45;29.85;;;;;;;4.09;81.64;97186.47;1696677;84;26052;-75
2022/11/07 06:10:50;;;;;;;49.20;28.98;;;;;;;4.14;81.78;97193.43;1696686;84;27394;-73
2022/11/07 06:13:17;;;;;;;48.73;27.52;;;;;;;4.16;81.78;97196.27;1696437;84;25803;-75
2022/11/07 06:15:45;;;;;;;38.42;24.65;;;;;;;4.20;81.83;97202.09;1696755;84;25758;-74
2022/11/07 06:18:18;;;;;;;41.55;25.40;;;;;;;4.23;81.93;97195.03;1696596;84;26476;-75
2022/11/07 06:20:45;;;;;;;69.25;37.08;;;;;;;4.28;82.00;97199.36;1696703;84;25845;-74
2022/11/07 06:23:12;;;;;;;70.55;40.65;;;;;;;4.32;82.03;97203.35;1696713;84;28141;-73
2022/11/07 06:25:39;;;;;;;53.78;31.42;;;;;;;4.36;82.04;97211.32;1696513;84;25958;-73
2022/11/07 06:28:09;;;;;;;41.77;25.25;;;;;;;4.43;82.10;97212.30;1696706;84;25814;-74
2022/11/07 06:30:36;;;;;;;42.78;25.20;;;;;;;4.47;82.16;97212.24;1696572;84;25754;-75
2022/11/07 06:33:06;;;;;;;34.58;21.82;;;;;;;4.55;82.30;97205.53;1696736;84;25730;-77
2022/11/07 06:35:34;;;;;;;39.05;25.35;;;;;;;4.62;82.41;97211.81;1696685;84;27389;-73
2022/11/07 06:38:07;;;;;;;39.85;23.02;;;;;;;4.70;82.56;97214.44;1695378;84;25794;-74
2022/11/07 06:40:34;;;;;;;36.93;21.60;;;;;;;4.78;82.60;97212.70;1690882;84;25770;-74
2022/11/07 06:43:14;;;;;;;37.90;23.92;;;;;;;4.85;82.71;97220.31;1691192;84;25752;-74
2022/11/07 06:45:42;;;;;;;40.00;25.52;;;;;;;4.93;82.73;97210.91;1636336;87;25852;-74
2022/11/07 06:48:09;;;;;;;50.98;31.57;;;;;;;4.99;82.87;97219.02;1636354;87;28215;-74
2022/11/07 06:50:37;;;;;;;65.67;39.10;;;;;;;5.08;82.93;97223.78;1636264;87;25819;-76
2022/11/07 06:53:10;;;;;;;57.20;33.53;;;;;;;5.15;82.96;97231.43;1636485;87;25812;-74
2022/11/07 06:55:37;;;;;;;48.25;29.67;;;;;;;5.23;82.99;97229.17;1636080;87;25799;-74
2022/11/07 06:58:05;;;;;;;50.28;28.87;;;;;;;5.31;83.03;97233.13;1636470;87;25736;-74
2022/11/07 07:00:34;;;;;;;46.42;28.70;;;;;;;5.38;83.11;97230.86;1669062;84;27409;-74
2022/11/07 07:03:01;;;;;;;44.93;26.77;;;;;;;5.46;83.22;97237.97;1687716;85;25763;-76
2022/11/07 07:05:27;;;;;;;38.78;23.35;;;;;;;5.55;83.22;97238.73;1687687;85;25748;-76
2022/11/07 07:07:55;;;;;;;39.30;24.30;;;;;;;5.60;83.26;97240.34;1687664;85;25811;-77
2022/11/07 07:10:23;;;;;;;37.13;24.05;;;;;;;5.67;83.29;97245.30;1687789;85;25775;-76
2022/11/07 07:12:50;;;;;;;46.20;25.68;;;;;;;5.74;83.33;97244.36;1687680;85;28531;-74
2022/11/07 07:15:16;;;;;;;47.65;27.22;;;;;;;5.83;83.40;97243.75;1687756;85;25516;-74
2022/11/07 07:17:43;;;;;;;47.60;29.48;;;;;;;5.92;83.41;97239.15;1687900;85;25787;-74
2022/11/07 07:20:11;;;;;;;59.60;34.65;;;;;;;5.99;83.47;97232.88;1687805;85;26429;-74
2022/11/07 07:22:37;;;;;;;57.50;36.90;;;;;;;6.06;83.52;97239.14;1687825;85;25843;-74
2022/11/07 07:25:05;;;;;;;61.70;38.65;;;;;;;6.15;83.55;97237.20;1687715;85;27611;-74
2022/11/07 07:27:31;;;;;;;57.95;35.78;;;;;;;6.23;83.59;97229.05;1687800;85;25700;-75
2022/11/07 07:29:58;;;;;;;51.55;32.65;;;;;;;6.29;83.76;97228.79;1687919;85;25831;-73
2022/11/07 07:32:24;;;;;;;44.40;27.15;;;;;;;6.36;83.76;97217.65;1687723;85;26352;-77
2022/11/07 07:34:51;;;;;;;48.38;29.63;;;;;;;6.45;83.93;97225.89;1687884;85;25814;-77
2022/11/07 07:37:17;;;;;;;42.85;26.48;;;;;;;6.57;84.06;97224.88;1687822;85;27386;-73
2022/11/07 07:39:44;;;;;;;44.30;25.35;;;;;;;6.68;84.13;97222.52;1689969;84;25869;-74
2022/11/07 07:42:10;;;;;;;39.42;23.85;;;;;;;6.79;84.33;97211.27;1705319;82;25811;-74
2022/11/07 07:44:37;;;;;;;44.40;24.87;;;;;;;6.91;84.32;97210.75;1734980;82;25790;-73
2022/11/07 07:47:03;;;;;;;37.38;24.25;;;;;;;7.01;84.33;97217.96;1734896;82;25695;-74
2022/11/07 07:49:30;;;;;;;36.03;23.30;;;;;;;7.13;84.51;97220.44;1735069;82;27535;-73
2022/11/07 07:51:57;;;;;;;45.00;23.80;;;;;;;7.21;84.49;97222.48;1734771;82;25438;-74
2022/11/07 07:54:23;;;;;;;41.80;23.73;;;;;;;7.31;84.50;97215.43;1739971;82;25670;-74
2022/11/07 07:56:50;;;;;;;36.40;22.75;;;;;;;7.42;84.60;97218.09;1746637;81;26432;-74
2022/11/07 07:59:16;;;;;;;39.35;23.25;;;;;;;7.53;84.66;97213.00;1753684;81;25734;-73
2022/11/07 08:01:43;;;;;;;37.33;22.40;;;;;;;7.65;84.63;97221.84;1753503;81;27363;-73
2022/11/07 08:04:09;;;;;;;37.17;21.70;;;;;;;7.75;84.67;97211.57;1753533;81;25408;-74
2022/11/07 08:06:36;;;;;;;35.20;20.68;;;;;;;7.86;84.75;97211.01;1753521;81;25674;-73
2022/11/07 08:09:04;;;;;;;35.50;21.00;;;;;;;7.99;84.71;97214.28;1753580;81;25778;-76
2022/11/07 08:11:30;;;;;;;37.70;20.60;;;;;;;8.13;84.72;97208.77;1753622;81;25768;-74
2022/11/07 08:13:57;;;;;;;29.65;18.02;;;;;;;8.29;84.89;97203.05;1728285;81;27487;-74
2022/11/07 08:16:23;;;;;;;33.02;19.02;;;;;;;8.48;84.86;97200.64;1753342;81;25661;-73
2022/11/07 08:18:51;;;;;;;29.32;17.52;;;;;;;8.63;84.63;97195.92;1753740;81;25624;-74
2022/11/07 08:21:18;;;;;;;30.70;16.97;;;;;;;8.78;84.63;97197.09;1753596;81;25754;-74
2022/11/07 08:23:44;;;;;;;28.92;18.17;;;;;;;8.89;84.57;97191.92;1753607;81;25454;-75
2022/11/07 08:26:11;;;;;;;26.42;14.87;;;;;;;9.04;84.37;97191.73;1753672;81;28030;-73
2022/11/07 08:28:37;;;;;;;21.33;13.78;;;;;;;9.17;83.99;97189.56;1753524;81;25554;-77
2022/11/07 08:31:10;;;;;;;22.58;12.45;;;;;;;9.29;83.63;97184.69;1753571;81;25647;-73
2022/11/07 08:33:38;;;;;;;15.53;9.00;;;;;;;9.45;83.43;97188.79;1753473;81;25657;-74
2022/11/07 08:36:06;;;;;;;12.58;7.95;;;;;;;9.57;83.07;97192.50;1739643;82;25865;-74
2022/11/07 08:38:34;;;;;;;12.00;7.53;;;;;;;9.71;82.55;97198.18;1721926;83;28467;-73
2022/11/07 08:41:01;;;;;;;10.50;6.53;;;;;;;9.82;82.09;97193.17;1736442;82;25420;-74
2022/11/07 08:43:28;;;;;;;9.95;7.08;;;;;;;9.93;81.80;97197.39;1736698;82;25691;-74
2022/11/07 08:45:56;;;;;;;9.90;6.03;;;;;;;10.07;81.50;97202.22;1721707;83;25911;-77
2022/11/07 08:48:23;;;;;;;11.78;6.83;;;;;;;10.18;81.05;97196.19;1736771;82;25427;-73
2022/11/07 08:50:55;;;;;;;9.18;5.78;;;;;;;10.31;80.82;97208.27;1721707;83;27392;-73
2022/11/07 08:53:23;;;;;;;9.33;5.78;;;;;;;10.42;80.49;97200.85;1736791;82;26348;-75
2022/11/07 08:55:50;;;;;;;7.67;5.40;;;;;;;10.54;80.01;97210.97;1744777;82;25767;-73
2022/11/07 08:58:18;;;;;;;10.98;5.70;;;;;;;10.65;79.59;97202.18;1744730;82;25765;-76
2022/11/07 09:00:44;;;;;;;7.75;5.58;;;;;;;10.74;79.22;97207.66;1744896;82;25703;-73
2022/11/07 09:03:12;;;;;;;9.20;6.37;;;;;;;10.85;78.84;97206.13;1745091;82;27383;-76
2022/11/07 09:05:39;;;;;;;8.53;5.60;;;;;;;10.93;78.60;97213.44;1745019;82;25462;-73
2022/11/07 09:08:05;;;;;;;9.08;5.72;;;;;;;11.03;78.24;97212.42;1745056;82;25682;-74
2022/11/07 09:10:32;;;;;;;7.92;5.40;;;;;;;11.13;78.03;97212.76;1745001;82;25694;-77
2022/11/07 09:12:59;;;;;;;8.20;5.40;;;;;;;11.24;77.60;97219.84;1744924;82;25711;-73
2022/11/07 09:15:25;;;;;;;7.00;4.90;;;;;;;11.31;77.32;97226.05;1744899;82;27356;-76
2022/11/07 09:17:52;;;;;;;7.87;5.72;;;;;;;11.39;77.05;97227.94;1745048;82;25689;-73
2022/11/07 09:20:18;;;;;;;5.87;4.30;;;;;;;11.49;76.78;97228.78;1744945;82;25652;-76
2022/11/07 09:22:45;;;;;;;7.55;5.37;;;;;;;11.58;76.48;97234.23;1745092;82;25680;-73
2022/11/07 09:25:13;;;;;;;6.90;4.83;;;;;;;11.66;76.29;97227.19;1744990;82;25638;-77
2022/11/07 09:27:39;;;;;;;11.73;5.37;;;;;;;11.71;75.95;97228.68;1744892;82;28323;-75
2022/11/07 09:30:08;;;;;;;9.48;5.58;;;;;;;11.79;75.67;97228.97;1744814;81;25839;-74
2022/11/07 09:32:34;;;;;;;8.00;5.10;;;;;;;11.82;75.25;97230.71;1744939;82;25713;-73
2022/11/07 09:35:01;;;;;;;7.37;5.17;;;;;;;11.87;75.05;97232.20;1744775;82;25730;-74
2022/11/07 09:37:28;;;;;;;5.58;4.72;;;;;;;11.91;74.50;97235.30;1745004;82;25424;-74
2022/11/07 09:39:55;;;;;;;5.15;4.40;;;;;;;11.94;74.48;97240.27;1746508;81;28174;-73
2022/11/07 09:42:41;;;;;;;6.45;4.28;;;;;;;11.95;74.09;97235.16;1747654;82;25707;-73
2022/11/07 09:45:12;;;;;;;8.23;5.10;;;;;;;11.99;73.94;97235.52;1696700;84;25835;-73
2022/11/07 09:47:46;;;;;;;16.70;11.03;;;;;;;12.02;73.43;97241.84;1696635;84;25793;-74
2022/11/07 09:50:38;;;;;;;16.67;9.65;;;;;;;12.07;73.32;97246.06;1696735;84;25847;-75
2022/11/07 09:53:18;;;;;;;6.00;4.37;;;;;;;12.11;72.91;97248.59;1696853;84;27391;-74
2022/11/07 09:55:56;;;;;;;6.47;4.55;;;;;;;12.16;72.63;97244.70;1645687;87;25696;-74
2022/11/07 09:58:28;;;;;;;8.00;5.22;;;;;;;12.25;72.44;97248.77;1580212;90;25852;-73
2022/11/07 10:01:04;;;;;;;8.65;5.53;;;;;;;12.40;72.29;97247.86;1576837;90;25874;-74
2022/11/07 10:03:36;;;;;;;7.40;5.17;;;;;;;12.56;72.05;97239.10;1580112;90;25781;-77
2022/11/07 10:06:23;;;;;;;6.20;4.70;;;;;;;12.76;71.48;97239.39;1580207;90;27349;-73
2022/11/07 10:12:14;;;;;;;7.90;4.92;;;;;;;13.11;70.62;97234.92;1539411;93;26030;-74
2022/11/07 10:15:00;;;;;;;7.97;4.70;;;;;;;13.31;70.25;97234.11;1552164;92;26459;-77
2022/11/07 10:17:50;;;;;;;5.30;4.05;;;;;;;13.48;69.86;97232.08;1548679;92;25803;-73
2022/11/07 10:20:37;;;;;;;6.03;4.40;;;;;;;13.60;69.39;97232.39;1549007;92;28106;-73
2022/11/07 10:23:38;;;;;;;6.97;3.87;;;;;;;13.72;68.83;97231.57;1547760;92;25753;-74
2022/11/07 10:26:14;;;;;;;5.67;4.03;;;;;;;13.79;68.43;97224.95;1549130;92;25807;-77
2022/11/07 10:28:57;;;;;;;7.50;4.40;;;;;;;13.85;67.39;97226.73;1552118;92;26404;-77
2022/11/07 10:31:35;;;;;;;4.80;3.72;;;;;;;13.79;67.53;97224.95;1510054;94;26039;-74
2022/11/07 10:34:07;;;;;;;5.15;4.03;;;;;;;13.80;66.87;97229.32;1510096;94;27460;-73
2022/11/07 10:36:34;;;;;;;7.90;4.53;;;;;;;13.74;66.84;97230.28;1489034;96;25837;-74
2022/11/07 10:39:00;;;;;;;5.80;3.50;;;;;;;13.67;66.61;97226.31;1470230;96;25917;-74
2022/11/07 10:41:30;;;;;;;5.20;3.52;;;;;;;13.62;66.32;97223.50;1476162;96;26058;-76
2022/11/07 10:44:08;;;;;;;8.35;4.70;;;;;;;13.54;66.05;97219.75;1446960;99;25929;-73
2022/11/07 10:46:44;;;;;;;6.50;3.95;;;;;;;13.53;66.09;97225.41;1453963;98;27470;-73
2022/11/07 10:49:31;;;;;;;5.65;4.00;;;;;;;13.50;66.06;97219.95;1446958;99;25918;-74
2022/11/07 10:52:18;;;;;;;6.05;4.08;;;;;;;13.48;65.91;97213.09;1408081;101;25966;-75
2022/11/07 10:54:45;;;;;;;6.25;3.40;;;;;;;13.44;66.24;97220.04;1424070;97;25923;-77
2022/11/07 10:57:22;;;;;;;6.00;3.60;;;;;;;13.36;65.33;97210.91;1477460;97;25827;-76
2022/11/07 10:59:58;;;;;;;4.75;3.33;;;;;;;13.22;64.86;97210.28;1476042;97;27717;-73
2022/11/07 11:02:29;;;;;;;4.55;3.52;;;;;;;13.12;64.71;97196.45;1476216;97;25888;-73
2022/11/07 11:05:01;;;;;;;3.73;3.30;;;;;;;13.07;64.61;97201.73;1476415;97;25803;-72
2022/11/07 11:07:39;;;;;;;7.37;3.40;;;;;;;13.02;64.34;97207.03;1477655;92;25815;-73
2022/11/07 11:10:27;;;;;;;4.65;3.50;;;;;;;13.00;64.42;97219.45;1546728;91;25823;-75
2022/11/07 11:12:53;;;;;;;6.17;2.98;;;;;;;12.95;64.10;97223.38;1563581;91;27487;-76
2022/11/07 11:15:24;;;;;;;4.37;3.25;;;;;;;12.92;63.80;97218.44;1563472;91;25846;-77
2022/11/07 11:18:04;;;;;;;6.42;4.22;;;;;;;12.85;63.77;97218.52;1563623;90;25866;-75
2022/11/07 11:20:37;;;;;;;6.17;4.08;;;;;;;12.83;63.75;97215.73;1563549;91;25764;-73
2022/11/07 11:23:17;;;;;;;8.85;3.52;;;;;;;12.83;63.52;97217.09;1563827;91;26502;-76
2022/11/07 11:25:47;;;;;;;6.92;3.92;;;;;;;12.84;63.55;97217.39;1559511;91;27511;-74
2022/11/07 11:28:25;;;;;;;10.10;5.05;;;;;;;12.86;63.45;97217.98;1573301;90;25841;-75
2022/11/07 11:31:06;;;;;;;6.60;3.80;;;;;;;12.85;63.45;97219.04;1578363;90;25847;-73
2022/11/07 11:33:43;;;;;;;6.55;3.40;;;;;;;12.84;63.07;97222.28;1508949;94;25705;-72
2022/11/07 11:36:18;;;;;;;5.35;3.95;;;;;;;12.87;63.41;97214.23;1445822;99;25878;-74
2022/11/07 11:38:53;;;;;;;4.25;3.58;;;;;;;12.93;63.18;97221.41;1361858;104;28156;-73
2022/11/07 11:41:40;;;;;;;5.42;4.00;;;;;;;12.89;62.92;97222.42;1368440;103;25408;-73
2022/11/07 11:44:27;;;;;;;8.05;3.37;;;;;;;12.88;62.73;97226.72;1368457;104;25887;-73
2022/11/07 11:47:27;;;;;;;6.00;3.90;;;;;;;12.89;62.90;97212.95;1366045;104;26575;-74
2022/11/07 11:50:02;;;;;;;4.60;3.70;;;;;;;12.94;62.75;97225.78;1436677;99;25824;-75
2022/11/07 11:52:33;;;;;;;4.33;3.55;;;;;;;13.00;62.78;97215.39;1411013;101;27456;-73
2022/11/07 11:55:00;;;;;;;5.40;3.50;;;;;;;13.05;62.56;97224.98;1429910;100;25875;-76